Nearby METAR Reports

 

KKLS - Kelso Longveiw, Washington, USA
Distance from station: ESE 7mi, 11km
Updated: Tue, Nov-20-2018 4:56pm PST
Clear
Clear
 Wind from calm
Wind: Calm
Temperature: 50°F , 10°C
Dew Point: 37°F , 3°C
Humidity: 62%
Barometer: 29.90 inHg , 1012.5 hPa
Clouds: Clear
Visibility: 10 miles , 16 km
2018/11/21 00:56 KKLS 210056Z AUTO 00000KT 10SM CLR 10/03 A2990 RMK AO2 SLP130 T01000028
KSPB - Scappoose, Oregon, USA
Distance from station: SSE 29mi, 46km
Updated: Tue, Nov-20-2018 4:53pm PST
Clear
Clear
 Wind from S
Wind: S 3 mph , 6 km/h
Temperature: 50°F , 10°C
Dew Point: 34°F , 1°C
Humidity: 54%
Barometer: 29.91 inHg , 1012.9 hPa
Clouds: Clear
Visibility: 10 miles , 16 km
2018/11/21 00:53 KSPB 210053Z AUTO 17003KT 10SM CLR 10/01 A2991 RMK AO2 SLP127 T01000006
 
KCLS - Chehalis Central, Washington, USA
Distance from station: N 36mi, 58km
Updated: Tue, Nov-20-2018 5:35pm PST
Clear
Clear
 Wind from NE
Wind: NE 3 mph , 6 km/h
Temperature: 45°F , 7°C
Dew Point: 41°F , 5°C
Humidity: 87%
Barometer: 29.88 inHg , 1011.9 hPa
Clouds: Clear
Visibility: 10 miles , 16 km
2018/11/21 01:35 KCLS 210135Z AUTO 04003KT 10SM CLR 07/05 A2988 RMK AO2
KAST - Astoria, Oregon, USA
Distance from station: W 41mi, 66km
Updated: Tue, Nov-20-2018 4:55pm PST
Clear
Clear
 Wind from ESE
Wind: ESE 3 mph , 6 km/h
Temperature: 52°F , 11°C
Dew Point: 37°F , 3°C
Humidity: 58%
Barometer: 29.85 inHg , 1010.8 hPa
Clouds: Clear
Visibility: 10 miles , 16 km
2018/11/21 00:55 KAST 210055Z AUTO 11003KT 10SM CLR 11/03 A2985 RMK AO2 SLP108 T01110033
 
KVUO - Vancouver, Washington, USA
Distance from station: SSE 42mi, 68km
Updated: Tue, Nov-20-2018 4:53pm PST
Clear
Clear
 Wind from SE
Wind: SE 3 mph , 6 km/h
Temperature: 48°F , 9°C
Dew Point: 32°F , 0°C
Humidity: 54%
Barometer: 29.91 inHg , 1012.9 hPa
Clouds: Clear
Visibility: 10 miles , 16 km
2018/11/21 00:53 KVUO 210053Z AUTO 14003KT 10SM CLR 09/00 A2991 RMK AO2 SLP128 T00890000
KHIO - Hillsboro/Portld, Oregon, USA
Distance from station: S 43mi, 69km
Updated: Tue, Nov-20-2018 4:53pm PST
Clear
Clear
 Wind from calm
Wind: Calm
Temperature: 46°F , 8°C
Dew Point: 36°F , 2°C
Humidity: 66%
Barometer: 29.90 inHg , 1012.5 hPa
Clouds: Clear
Visibility: 10 miles , 16 km
2018/11/21 00:53 KHIO 210053Z 00000KT 10SM CLR 08/02 A2990 RMK AO2 SLP128 T00830017
 
KPDX - Portland, Oregon, USA
Distance from station: SSE 44mi, 70km
Updated: Tue, Nov-20-2018 4:53pm PST
Overcast
Overcast
 Wind from SE
Wind: SE 12 mph , 19 km/h
Temperature: 46°F , 8°C
Wind Chill: 40°F , 4°C
Dew Point: 32°F , 0°C
Humidity: 57%
Barometer: 29.91 inHg , 1012.9 hPa
Clouds: Overcast
Visibility: 10 miles , 16 km
Cloud details: Partly cloudy 16000 ft
Overcast 25000 ft
2018/11/21 00:53 KPDX 210053Z 14010KT 10SM SCT160 OVC250 08/00 A2991 RMK AO2 SLP129 T00830000